Saint Germain, Wisconsin
Current Conditions -  °F | °C
As of 3:35 AM on Sunday 26 Oct 2014 (Local Time) from KEGV Reporting Station
Clear Clear  
Wind Chill:   Ceiling: Unl
Heat Index:   Visibility: 10mi
Dew Point: -3°   Wind: 5mph
Humidity: 68%   Direction: 280°W
Pressure: 29.94"   Gusts: NA
Location:  45.9°N, 89.49°W
Report Text: KEGV 260835Z AUTO 28004KT 10SM CLR 02/M03 A2994 RMK AO2 T00211032
Loading
Personal Weather Stations






























Interactive Weather Map
Tropical Storm Tracking
New forecast layout! Learn more

10-Day Weather Forecast

Advertisements
Track Severe Weather on mobile